Aeroporto :
LOGIN :

Iscrizione | Disclaimer

   EN    FR    IT 

 










Sommario :    VFR   VFR Marginale   IFR   IFR Intensivo   IFR Molto Intensivo
Visibilità : 
Base nubi : 
>= 8 km
>= 3000ft
5 / 8 km
1000 / 3000 ft
1500m / 5 km
500 / 1000 ft
800 / 1500m
200 / 500 ft
< 800m
< 200 ft
Simboli :   Temporali  Nebbia  Neve Forte  Precipitazioni Forti  Vento > 20 kt
SIGMETs :   Varie  Temporali  Ghiacco  Turbolenza  Onda orograficha  Ceneri Vulcaniche






- Altitudine del aeroporto : 5600 ft
- Codice IATA : SMV


LSZS - Samedan

ULTIMO METAR :
  • 290420Z AUTO 17001KT CAVOK M01/M01 Q1021

METARs OBSOLETI :
  • 290350Z AUTO 21001KT CAVOK M01/M01 Q1021
  • 290320Z AUTO VRB01KT CAVOK M01/M02 Q1021
  • 290250Z AUTO 17001KT CAVOK 00/M00 Q1021
  • 290220Z AUTO VRB01KT CAVOK M01/M01 Q1021
  • 290150Z AUTO VRB01KT CAVOK 00/M00 Q1021
  • 290120Z AUTO 19001KT CAVOK 01/M00 Q1021
  • 290050Z AUTO 20001KT CAVOK M00/M01 Q1021
  • 290020Z AUTO 17002KT CAVOK 00/M00 Q1022
  • 282350Z AUTO VRB01KT CAVOK 01/M00 Q1022

TAF TAF LSZS
Valido dal 29 a 03 ore il 29 a 12 ore UTC


290225Z 2903/2912 VRB02KT CAVOK TX15/2912Z
BECMG 2909/2911 22010KT 9999 SCT100
ATIS : +41 81 834 93 24



MetMap, La meteo Aeronautica in un colpo d'occhio ! - Copyright ORBIFLY Dicembre 2007 - Disclaimer

ORBIFLY MET'MAP TEAM :

Programmazione e sviluppo : Alexandra Zaïnal
Concezione : Baudouin d'Aumeries
Supporto tecnico e logistico : Manuel Goepfert
Aiuto : Marc-Olivier Méhu
Aiuto per la traduzione : Arnaldo La Scala




FONTI E CREDITI :

   NOAA